createdAt,value
2023-05-21T00:02:00.822Z,50.55
2023-05-21T00:04:29.782Z,50.89
2023-05-21T00:06:56.759Z,51.79
2023-05-21T00:09:23.619Z,51.88
2023-05-21T00:11:50.643Z,51.08
2023-05-21T00:14:17.525Z,51.27
2023-05-21T00:16:47.455Z,51.77
2023-05-21T00:19:17.955Z,51.62
2023-05-21T00:21:47.751Z,51.64
2023-05-21T00:24:16.851Z,51.28
2023-05-21T00:26:43.887Z,51.39
2023-05-21T00:29:12.664Z,51.41
2023-05-21T00:31:41.074Z,52.09
2023-05-21T00:34:10.822Z,52.04
2023-05-21T00:36:40.450Z,51.94
2023-05-21T00:39:07.490Z,51.94
2023-05-21T00:41:35.415Z,52.28
2023-05-21T00:44:03.221Z,51.74
2023-05-21T00:46:30.489Z,52.88
2023-05-21T00:48:58.531Z,52.37
2023-05-21T00:51:30.372Z,52.69
2023-05-21T00:53:58.056Z,52.70
2023-05-21T00:56:27.286Z,52.05
2023-05-21T00:58:57.527Z,52.73
2023-05-21T01:01:27.224Z,52.09
2023-05-21T01:03:58.093Z,51.77
2023-05-21T01:06:25.325Z,51.15
2023-05-21T01:08:53.568Z,52.04
2023-05-21T01:11:28.001Z,52.16
2023-05-21T01:14:01.412Z,52.10
2023-05-21T01:16:28.445Z,52.78
2023-05-21T01:18:59.737Z,52.85
2023-05-21T01:21:32.545Z,53.25
2023-05-21T01:24:07.281Z,53.84
2023-05-21T01:26:39.046Z,52.82
2023-05-21T01:29:15.382Z,52.85
2023-05-21T01:31:55.598Z,53.51
2023-05-21T01:34:41.816Z,53.27
2023-05-21T01:37:26.230Z,52.91
2023-05-21T01:39:57.499Z,52.58
2023-05-21T01:42:25.562Z,53.20
2023-05-21T01:44:57.380Z,52.88
2023-05-21T01:47:29.594Z,53.29
2023-05-21T01:49:57.084Z,53.98
2023-05-21T01:52:29.269Z,53.89
2023-05-21T01:55:00.452Z,53.61
2023-05-21T01:57:27.494Z,53.95
2023-05-21T01:59:55.058Z,53.51
2023-05-21T02:02:22.159Z,54.73
2023-05-21T02:04:50.235Z,53.34
2023-05-21T02:07:18.394Z,53.11
2023-05-21T02:09:45.266Z,53.10
2023-05-21T02:12:12.170Z,54.14
2023-05-21T02:14:39.594Z,53.83
2023-05-21T02:17:08.204Z,53.43
2023-05-21T02:19:35.406Z,53.73
2023-05-21T02:22:02.572Z,53.22
2023-05-21T02:24:29.484Z,54.18
2023-05-21T02:26:56.377Z,53.83
2023-05-21T02:29:23.348Z,54.05
2023-05-21T02:31:51.446Z,54.41
2023-05-21T02:34:21.339Z,53.59
2023-05-21T02:36:48.593Z,53.78
2023-05-21T02:39:15.715Z,52.83
2023-05-21T02:41:45.252Z,53.27
2023-05-21T02:44:15.087Z,53.67
2023-05-21T02:46:41.931Z,54.36
2023-05-21T02:49:09.412Z,53.43
2023-05-21T02:51:36.354Z,53.25
2023-05-21T02:54:06.272Z,53.06
2023-05-21T02:56:38.560Z,52.67
2023-05-21T02:59:05.598Z,52.39
2023-05-21T03:01:36.318Z,54.08
2023-05-21T03:04:03.660Z,54.56
2023-05-21T03:06:32.226Z,55.40
2023-05-21T03:08:59.158Z,55.93
2023-05-21T03:11:26.114Z,56.21
2023-05-21T03:13:58.708Z,55.92
2023-05-21T03:16:25.631Z,56.04
2023-05-21T03:18:54.907Z,55.99
2023-05-21T03:21:32.956Z,55.90
2023-05-21T03:24:03.603Z,56.96
2023-05-21T03:26:34.456Z,57.21
2023-05-21T03:29:04.003Z,55.38
2023-05-21T03:31:31.152Z,53.01
2023-05-21T03:34:09.965Z,52.29
2023-05-21T03:36:36.950Z,54.18
2023-05-21T03:39:07.046Z,54.05
2023-05-21T03:41:34.877Z,54.36
2023-05-21T03:44:08.374Z,53.72
2023-05-21T03:47:02.447Z,53.58
2023-05-21T03:49:34.768Z,52.78
2023-05-21T03:52:02.025Z,51.75
2023-05-21T03:54:33.680Z,52.49
2023-05-21T03:57:05.060Z,52.12
2023-05-21T03:59:33.146Z,51.55
2023-05-21T04:02:06.288Z,51.07
2023-05-21T04:04:34.002Z,50.24
2023-05-21T04:07:01.178Z,50.76
2023-05-21T04:09:28.404Z,50.30
2023-05-21T04:11:55.383Z,52.39
2023-05-21T04:14:27.818Z,54.01
2023-05-21T04:16:54.672Z,54.18
2023-05-21T04:19:21.986Z,52.31
2023-05-21T04:21:49.805Z,51.64
2023-05-21T04:24:20.218Z,50.48
2023-05-21T04:27:01.651Z,50.47
2023-05-21T04:29:31.018Z,50.82
2023-05-21T04:31:59.950Z,49.84
2023-05-21T04:34:26.844Z,51.21
2023-05-21T04:36:56.988Z,50.85
2023-05-21T04:39:25.093Z,50.20
2023-05-21T04:41:54.775Z,50.82
2023-05-21T04:44:26.597Z,50.12
2023-05-21T04:47:00.744Z,49.96
2023-05-21T04:49:31.039Z,50.06
2023-05-21T04:51:59.215Z,50.83
2023-05-21T04:54:26.154Z,52.63
2023-05-21T04:56:53.884Z,50.83
2023-05-21T04:59:21.763Z,53.25
2023-05-21T05:01:57.634Z,48.02
2023-05-21T05:04:24.505Z,49.10
2023-05-21T05:06:58.883Z,50.88
2023-05-21T05:09:25.877Z,51.10
2023-05-21T05:11:55.079Z,50.63
2023-05-21T05:14:22.004Z,51.46
2023-05-21T05:16:54.586Z,50.09
2023-05-21T05:19:21.714Z,51.69
2023-05-21T05:21:48.702Z,50.15
2023-05-21T05:24:16.352Z,47.88
2023-05-21T05:26:43.770Z,49.20
2023-05-21T05:29:11.518Z,45.86
2023-05-21T05:31:38.570Z,49.24
2023-05-21T05:34:06.347Z,46.59
2023-05-21T05:36:33.786Z,44.92
2023-05-21T05:39:00.840Z,48.08
2023-05-21T05:41:27.861Z,46.20
2023-05-21T05:43:55.870Z,47.22
2023-05-21T05:46:26.144Z,46.95
2023-05-21T05:48:53.240Z,45.98
2023-05-21T05:51:20.113Z,42.65
2023-05-21T05:53:47.003Z,41.63
2023-05-21T05:56:14.392Z,42.39
2023-05-21T05:58:41.462Z,41.90
2023-05-21T06:01:13.753Z,40.69
2023-05-21T06:03:41.473Z,39.57
2023-05-21T06:06:14.749Z,41.03
2023-05-21T06:08:42.006Z,42.03
2023-05-21T06:11:09.817Z,39.04
2023-05-21T06:13:36.959Z,40.13
2023-05-21T06:16:05.733Z,40.13
2023-05-21T06:18:32.933Z,40.86
2023-05-21T06:20:59.930Z,40.53
2023-05-21T06:23:27.710Z,40.02
2023-05-21T06:25:55.415Z,40.53
2023-05-21T06:28:22.653Z,39.26
2023-05-21T06:30:50.122Z,40.89
2023-05-21T06:33:17.122Z,39.15
2023-05-21T06:35:44.501Z,39.31
2023-05-21T06:38:14.808Z,38.99
2023-05-21T06:40:44.736Z,41.21
2023-05-21T06:43:15.788Z,40.70
2023-05-21T06:46:14.843Z,39.25
2023-05-21T06:48:45.164Z,39.66
2023-05-21T06:51:12.472Z,41.30
2023-05-21T06:53:41.531Z,40.30
2023-05-21T06:56:08.559Z,38.85
2023-05-21T06:58:38.249Z,38.65
2023-05-21T07:01:05.375Z,38.63
2023-05-21T07:03:32.909Z,39.81
2023-05-21T07:05:59.897Z,38.90
2023-05-21T07:08:27.396Z,39.74
2023-05-21T07:10:56.439Z,37.80
2023-05-21T07:13:26.525Z,39.17
2023-05-21T07:15:53.718Z,38.39
2023-05-21T07:18:21.130Z,39.19
2023-05-21T07:20:48.031Z,38.44
2023-05-21T07:23:16.384Z,39.25
2023-05-21T07:25:44.295Z,38.55
2023-05-21T07:28:13.054Z,38.08
2023-05-21T07:30:40.073Z,39.69
2023-05-21T07:33:12.774Z,37.92
2023-05-21T07:35:40.968Z,39.04
2023-05-21T07:38:08.264Z,39.31
2023-05-21T07:40:35.271Z,36.85
2023-05-21T07:43:03.343Z,37.06
2023-05-21T07:45:31.797Z,36.61
2023-05-21T07:47:58.916Z,37.72
2023-05-21T07:50:27.038Z,38.14
2023-05-21T07:52:54.666Z,39.32
2023-05-21T07:55:21.881Z,38.09
2023-05-21T07:57:49.579Z,37.88
2023-05-21T08:00:19.183Z,38.38
2023-05-21T08:02:54.131Z,37.52
2023-05-21T08:05:23.559Z,37.06
2023-05-21T08:07:50.805Z,36.89
2023-05-21T08:10:19.488Z,35.87
2023-05-21T08:12:48.499Z,35.48
2023-05-21T08:15:15.650Z,36.09
2023-05-21T08:17:45.370Z,36.92
2023-05-21T08:20:14.486Z,34.57
2023-05-21T08:22:43.801Z,35.52
2023-05-21T08:25:11.226Z,36.90
2023-05-21T08:27:38.608Z,36.87
2023-05-21T08:30:06.918Z,36.99
2023-05-21T08:32:34.982Z,37.42
2023-05-21T08:35:01.958Z,36.96
2023-05-21T08:37:45.418Z,35.81
2023-05-21T08:40:35.826Z,37.71
2023-05-21T08:43:02.875Z,36.48
2023-05-21T08:45:42.831Z,37.06
2023-05-21T08:48:17.031Z,36.86
2023-05-21T08:50:45.291Z,38.58
2023-05-21T08:53:28.221Z,37.46
2023-05-21T08:55:57.540Z,36.61
2023-05-21T08:58:33.826Z,36.77
2023-05-21T09:01:01.750Z,36.64
2023-05-21T09:03:40.583Z,35.78
2023-05-21T09:06:14.154Z,37.07
2023-05-21T09:08:46.021Z,35.03
2023-05-21T09:11:21.700Z,36.10
2023-05-21T09:13:55.478Z,36.02
2023-05-21T09:16:33.840Z,36.19
2023-05-21T09:19:04.631Z,36.20
2023-05-21T09:21:35.302Z,35.54
2023-05-21T09:24:11.286Z,36.70
2023-05-21T09:26:42.071Z,35.33
2023-05-21T09:29:09.162Z,37.07
2023-05-21T09:31:36.933Z,35.54
2023-05-21T09:34:03.999Z,37.15
2023-05-21T09:36:34.731Z,36.77
2023-05-21T09:39:01.806Z,36.05
2023-05-21T09:41:33.800Z,37.44
2023-05-21T09:44:04.477Z,38.43
2023-05-21T09:46:41.677Z,37.32
2023-05-21T09:49:26.653Z,37.55
2023-05-21T09:51:58.654Z,37.58
2023-05-21T09:54:31.126Z,37.29
2023-05-21T09:56:58.066Z,36.66
2023-05-21T09:59:35.308Z,37.33
2023-05-21T10:02:02.708Z,38.08
2023-05-21T10:04:31.778Z,37.86
2023-05-21T10:07:00.967Z,37.74
2023-05-21T10:09:30.078Z,37.76
2023-05-21T10:11:57.518Z,38.34
2023-05-21T10:14:27.909Z,38.11
2023-05-21T10:16:59.060Z,37.83
2023-05-21T10:19:26.975Z,39.18
2023-05-21T10:21:54.511Z,40.57
2023-05-21T10:24:22.251Z,40.81
2023-05-21T10:26:49.594Z,41.69
2023-05-21T10:29:19.555Z,41.48
2023-05-21T10:31:50.000Z,42.11
2023-05-21T10:34:17.557Z,43.41
2023-05-21T10:36:45.279Z,44.22
2023-05-21T10:39:13.623Z,44.64
2023-05-21T10:42:18.902Z,44.33
2023-05-21T10:45:17.219Z,44.36
2023-05-21T10:48:14.482Z,43.49
2023-05-21T10:50:47.417Z,44.89
2023-05-21T10:53:29.197Z,45.86
2023-05-21T10:56:06.881Z,45.63
2023-05-21T10:59:12.903Z,46.22
2023-05-21T11:01:42.099Z,43.35
2023-05-21T11:04:09.311Z,42.75
2023-05-21T11:06:36.660Z,41.23
2023-05-21T11:09:16.521Z,43.00
2023-05-21T11:11:50.927Z,42.27
2023-05-21T11:17:09.030Z,42.53
2023-05-21T11:19:40.081Z,42.58
2023-05-21T11:22:09.400Z,41.28
2023-05-21T11:24:41.446Z,39.50
2023-05-21T11:27:08.868Z,39.41
2023-05-21T11:29:44.709Z,40.02
2023-05-21T11:32:13.635Z,39.10
2023-05-21T11:34:48.645Z,38.79
2023-05-21T11:37:23.448Z,39.51
2023-05-21T11:39:51.258Z,40.90
2023-05-21T11:42:30.551Z,39.54
2023-05-21T11:45:01.126Z,39.42
2023-05-21T11:47:29.469Z,40.11
2023-05-21T11:49:58.358Z,40.24
2023-05-21T11:52:26.916Z,40.36
2023-05-21T11:54:56.896Z,39.13
2023-05-21T11:57:30.962Z,39.22
2023-05-21T11:59:59.419Z,39.13
2023-05-21T12:02:31.085Z,37.78
2023-05-21T12:05:01.265Z,36.25
2023-05-21T12:07:29.999Z,37.80
2023-05-21T12:09:57.821Z,38.20
2023-05-21T12:12:35.334Z,37.42
2023-05-21T12:15:10.439Z,36.01
2023-05-21T12:17:37.430Z,37.94
2023-05-21T12:20:07.584Z,37.96
2023-05-21T12:22:34.469Z,36.67
2023-05-21T12:25:01.703Z,36.54
2023-05-21T12:27:31.942Z,37.89
2023-05-21T12:29:59.774Z,37.79
2023-05-21T12:32:27.755Z,37.13
2023-05-21T12:34:56.363Z,37.18
2023-05-21T12:37:32.517Z,36.88
2023-05-21T12:40:05.234Z,37.16
2023-05-21T12:42:41.902Z,36.66
2023-05-21T12:45:10.032Z,37.06
2023-05-21T12:47:37.577Z,35.66
2023-05-21T12:50:09.540Z,37.89
2023-05-21T12:52:36.471Z,36.99
2023-05-21T12:55:04.567Z,37.77
2023-05-21T12:57:41.592Z,36.53
2023-05-21T13:00:10.346Z,35.18
2023-05-21T13:02:41.283Z,36.93
2023-05-21T13:05:10.829Z,34.39
2023-05-21T13:07:39.597Z,36.21
2023-05-21T13:10:09.801Z,35.94
2023-05-21T13:12:36.949Z,35.94
2023-05-21T13:15:05.971Z,36.51
2023-05-21T13:17:32.876Z,36.01
2023-05-21T13:20:12.330Z,34.39
2023-05-21T13:22:47.408Z,34.70
2023-05-21T13:25:17.032Z,32.68
2023-05-21T13:27:44.740Z,33.21
2023-05-21T13:30:14.575Z,33.42
2023-05-21T13:32:42.386Z,31.51
2023-05-21T13:35:10.225Z,31.19
2023-05-21T13:37:37.210Z,33.20
2023-05-21T13:40:05.971Z,31.51
2023-05-21T13:42:33.802Z,32.04
2023-05-21T13:45:00.755Z,30.84
2023-05-21T13:47:27.677Z,33.53
2023-05-21T13:49:54.517Z,32.67
2023-05-21T13:52:21.811Z,33.49
2023-05-21T13:54:48.725Z,34.48
2023-05-21T13:57:16.971Z,34.66
2023-05-21T13:59:43.834Z,34.16
2023-05-21T14:02:11.077Z,35.39
2023-05-21T14:04:39.470Z,36.32
2023-05-21T14:07:07.264Z,34.68
2023-05-21T14:09:34.405Z,33.93
2023-05-21T14:12:01.573Z,33.54
2023-05-21T14:14:28.506Z,34.03
2023-05-21T14:16:55.476Z,32.46
2023-05-21T14:19:22.404Z,34.13
2023-05-21T14:21:52.465Z,32.90
2023-05-21T14:24:20.095Z,34.21
2023-05-21T14:26:47.040Z,35.02
2023-05-21T14:29:14.302Z,35.71
2023-05-21T14:31:41.255Z,36.05
2023-05-21T14:34:08.924Z,35.21
2023-05-21T14:36:36.625Z,34.73
2023-05-21T14:39:03.929Z,34.49
2023-05-21T14:41:30.974Z,34.92
2023-05-21T14:43:57.821Z,35.21
2023-05-21T14:46:24.980Z,33.99
2023-05-21T14:48:59.203Z,32.28
2023-05-21T14:51:26.109Z,32.53
2023-05-21T14:53:52.967Z,30.70
2023-05-21T14:56:22.199Z,31.32
2023-05-21T14:58:49.378Z,32.35
2023-05-21T15:01:16.341Z,32.17
2023-05-21T15:03:43.389Z,32.74
2023-05-21T15:06:10.386Z,33.28
2023-05-21T15:08:37.310Z,31.65
2023-05-21T15:11:04.250Z,31.61
2023-05-21T15:13:31.193Z,32.80
2023-05-21T15:15:58.037Z,33.08
2023-05-21T15:18:25.070Z,34.72
2023-05-21T15:20:52.254Z,34.18
2023-05-21T15:23:19.157Z,35.60
2023-05-21T15:25:46.193Z,35.00
2023-05-21T15:28:13.484Z,35.68
2023-05-21T15:30:40.859Z,36.21
2023-05-21T15:33:08.140Z,36.19
2023-05-21T15:35:36.612Z,35.80
2023-05-21T15:38:03.988Z,36.14
2023-05-21T15:40:32.284Z,35.15
2023-05-21T15:42:59.364Z,35.77
2023-05-21T15:45:26.311Z,36.43
2023-05-21T15:47:53.299Z,37.02
2023-05-21T15:50:22.680Z,37.53
2023-05-21T15:52:51.585Z,36.97
2023-05-21T15:55:20.492Z,38.18
2023-05-21T15:57:47.416Z,37.83
2023-05-21T16:00:14.612Z,37.73
2023-05-21T16:02:42.202Z,38.01
2023-05-21T16:05:09.669Z,37.71
2023-05-21T16:07:38.175Z,38.56
2023-05-21T16:10:06.646Z,38.46
2023-05-21T16:12:33.537Z,38.86
2023-05-21T16:15:00.475Z,39.48
2023-05-21T16:17:27.423Z,39.97
2023-05-21T16:19:54.345Z,39.83
2023-05-21T16:22:21.309Z,39.96
2023-05-21T16:24:48.439Z,39.71
2023-05-21T16:27:17.498Z,40.09
2023-05-21T16:29:44.839Z,40.48
2023-05-21T16:32:14.816Z,41.16
2023-05-21T16:34:42.112Z,40.49
2023-05-21T16:37:09.930Z,39.56
2023-05-21T16:39:37.193Z,40.31
2023-05-21T16:42:04.345Z,40.41
2023-05-21T16:44:32.137Z,40.00
2023-05-21T16:47:00.289Z,40.90
2023-05-21T16:49:27.773Z,40.51
2023-05-21T16:51:54.874Z,40.90
2023-05-21T16:54:21.927Z,40.31
2023-05-21T16:56:49.041Z,40.46
2023-05-21T16:59:16.601Z,40.70
2023-05-21T17:01:44.113Z,40.86
2023-05-21T17:04:11.869Z,42.59
2023-05-21T17:06:41.674Z,42.26
2023-05-21T17:09:08.610Z,41.75
2023-05-21T17:11:35.524Z,42.05
2023-05-21T17:14:02.465Z,41.70
2023-05-21T17:16:29.409Z,41.31
2023-05-21T17:18:56.470Z,42.57
2023-05-21T17:21:23.445Z,42.53
2023-05-21T17:23:50.403Z,41.85
2023-05-21T17:26:17.266Z,42.03
2023-05-21T17:28:44.113Z,43.54
2023-05-21T17:31:11.041Z,43.49
2023-05-21T17:33:38.103Z,43.00
2023-05-21T17:36:05.227Z,43.55
2023-05-21T17:38:32.112Z,43.82
2023-05-21T17:40:59.467Z,43.45
2023-05-21T17:43:27.774Z,44.06
2023-05-21T17:45:54.835Z,42.20
2023-05-21T17:48:21.996Z,42.23
2023-05-21T17:50:49.134Z,41.71
2023-05-21T17:53:16.625Z,42.67
2023-05-21T17:55:43.551Z,43.37
2023-05-21T17:58:10.497Z,41.62
2023-05-21T18:00:37.392Z,42.27
2023-05-21T18:03:04.706Z,42.75
2023-05-21T18:05:31.785Z,43.17
2023-05-21T18:08:01.144Z,42.16
2023-05-21T18:10:31.520Z,42.10
2023-05-21T18:13:01.426Z,42.17
2023-05-21T18:15:28.368Z,42.15
2023-05-21T18:17:55.297Z,42.41
2023-05-21T18:20:22.198Z,42.40
2023-05-21T18:22:49.086Z,41.29
2023-05-21T18:25:15.990Z,41.65
2023-05-21T18:27:44.073Z,41.19
2023-05-21T18:30:13.158Z,41.53
2023-05-21T18:32:44.605Z,41.13
2023-05-21T18:35:13.144Z,41.48
2023-05-21T18:37:44.617Z,40.48
2023-05-21T18:40:12.598Z,42.03
2023-05-21T18:42:39.567Z,39.54
2023-05-21T18:45:10.513Z,40.21
2023-05-21T18:47:39.332Z,39.52
2023-05-21T18:50:11.326Z,39.02
2023-05-21T18:52:38.248Z,39.30
2023-05-21T18:55:05.901Z,39.42
2023-05-21T18:57:34.830Z,38.95
2023-05-21T19:00:01.700Z,39.92
2023-05-21T19:02:29.796Z,39.74
2023-05-21T19:04:56.867Z,40.65
2023-05-21T19:07:23.826Z,39.64
2023-05-21T19:09:52.761Z,39.06
2023-05-21T19:12:19.757Z,41.28
2023-05-21T19:14:46.973Z,41.74
2023-05-21T19:17:13.857Z,42.94
2023-05-21T19:19:40.698Z,43.49
2023-05-21T19:22:08.010Z,44.85
2023-05-21T19:24:34.937Z,44.56
2023-05-21T19:27:01.884Z,44.44
2023-05-21T19:29:31.417Z,44.35
2023-05-21T19:31:59.274Z,44.02
2023-05-21T19:34:29.153Z,43.01
2023-05-21T19:36:58.727Z,44.91
2023-05-21T19:39:25.609Z,45.77
2023-05-21T19:41:53.135Z,44.17
2023-05-21T19:44:20.041Z,45.70
2023-05-21T19:46:49.183Z,46.69
2023-05-21T19:49:16.231Z,47.19
2023-05-21T19:51:46.457Z,46.46
2023-05-21T19:54:16.801Z,47.83
2023-05-21T19:56:43.744Z,48.97
2023-05-21T19:59:11.585Z,49.78
2023-05-21T20:01:43.422Z,51.27
2023-05-21T20:04:13.370Z,52.28
2023-05-21T20:06:41.348Z,53.43
2023-05-21T20:09:13.316Z,53.56
2023-05-21T20:11:42.240Z,54.40
2023-05-21T20:14:09.362Z,55.29
2023-05-21T20:16:39.042Z,56.43
2023-05-21T20:19:06.063Z,56.27
2023-05-21T20:21:34.403Z,56.28
2023-05-21T20:24:03.480Z,56.47
2023-05-21T20:26:37.074Z,57.14
2023-05-21T20:29:04.047Z,57.70
2023-05-21T20:31:31.101Z,57.78
2023-05-21T20:33:58.839Z,57.01
2023-05-21T20:36:27.212Z,57.21
2023-05-21T20:38:57.512Z,58.43
2023-05-21T20:41:26.875Z,58.11
2023-05-21T20:43:55.431Z,57.77
2023-05-21T20:46:22.332Z,58.04
2023-05-21T20:48:49.580Z,57.89
2023-05-21T20:51:19.631Z,57.62
2023-05-21T20:53:49.815Z,57.79
2023-05-21T20:56:21.713Z,58.86
2023-05-21T20:58:53.491Z,59.08
2023-05-21T21:01:20.577Z,58.63
2023-05-21T21:03:47.574Z,58.86
2023-05-21T21:06:15.390Z,58.69
2023-05-21T21:08:46.188Z,58.62
2023-05-21T21:11:13.521Z,58.37
2023-05-21T21:13:41.046Z,58.00
2023-05-21T21:16:11.101Z,59.92
2023-05-21T21:18:40.442Z,61.89
2023-05-21T21:21:07.342Z,60.16
2023-05-21T21:23:36.777Z,59.64
2023-05-21T21:26:03.701Z,59.88
2023-05-21T21:28:30.655Z,60.04
2023-05-21T21:31:02.873Z,60.66
2023-05-21T21:33:32.402Z,60.82
2023-05-21T21:36:00.769Z,59.57
2023-05-21T21:38:27.653Z,59.58
2023-05-21T21:40:57.320Z,60.42
2023-05-21T21:43:24.161Z,60.10
2023-05-21T21:45:51.476Z,60.28
2023-05-21T21:48:18.446Z,61.08
2023-05-21T21:50:48.293Z,61.22
2023-05-21T21:53:15.218Z,59.82
2023-05-21T21:55:42.038Z,59.91
2023-05-21T21:58:08.898Z,62.10
2023-05-21T22:00:40.478Z,62.23
2023-05-21T22:03:07.535Z,64.34
2023-05-21T22:05:34.455Z,64.30
2023-05-21T22:08:02.353Z,63.21
2023-05-21T22:10:29.261Z,64.03
2023-05-21T22:13:01.148Z,64.31
2023-05-21T22:15:29.755Z,64.88
2023-05-21T22:17:56.691Z,65.17
2023-05-21T22:20:29.347Z,65.96
2023-05-21T22:22:57.250Z,65.44
2023-05-21T22:25:24.183Z,64.78
2023-05-21T22:27:51.577Z,65.27
2023-05-21T22:30:19.650Z,65.80
2023-05-21T22:32:50.073Z,65.62
2023-05-21T22:35:19.929Z,61.75
2023-05-21T22:37:46.852Z,56.90
2023-05-21T22:40:13.889Z,53.74
2023-05-21T22:42:41.056Z,52.31
2023-05-21T22:45:11.176Z,52.17
2023-05-21T22:47:39.787Z,50.78
2023-05-21T22:50:10.225Z,51.26
2023-05-21T22:52:38.289Z,51.21
2023-05-21T22:55:06.337Z,51.93
2023-05-21T22:57:33.308Z,52.03
2023-05-21T23:00:02.597Z,51.37
2023-05-21T23:02:29.496Z,51.28
2023-05-21T23:04:58.206Z,52.80
2023-05-21T23:07:27.597Z,52.00
2023-05-21T23:10:00.189Z,51.96
2023-05-21T23:12:29.916Z,50.85
2023-05-21T23:14:56.931Z,49.84
2023-05-21T23:17:27.205Z,49.51
2023-05-21T23:19:54.167Z,49.53
2023-05-21T23:22:23.821Z,48.52
2023-05-21T23:24:51.209Z,48.60
2023-05-21T23:27:20.369Z,48.98
2023-05-21T23:29:47.227Z,49.44
2023-05-21T23:32:14.128Z,49.57
2023-05-21T23:34:42.057Z,49.36
2023-05-21T23:37:09.007Z,48.92
2023-05-21T23:39:36.752Z,49.42
2023-05-21T23:42:04.072Z,47.99
2023-05-21T23:44:30.912Z,47.50
2023-05-21T23:46:57.720Z,47.85
2023-05-21T23:49:24.642Z,46.94
2023-05-21T23:51:54.528Z,46.59
2023-05-21T23:54:21.407Z,46.48
2023-05-21T23:56:50.546Z,46.94
2023-05-21T23:59:18.744Z,46.58
